• Join FlightAware (Why Join?)
  • Login
  • US Flag 
02:50AM EST


 

Airport Tracker/Info


-or-


 

Live Flight TrackerFlight Track Log ✈ N777NC ✈ 27-Jun-2013 ✈ KSDF - KATL

Flight Track Log - Related Links

Times and Time Zones

All times are in EDT time to prevent confusion due to time zone crossing. See the N777NC flight status page for this flight to view local times or setup timezone preferences in your user account.

Time Position Orientation Groundspeed Altitude Reporting Facility
EDT Latitude Longitude Course Direction KTS MPH feet Rate Location/Type
06:50PM 38.2500 -85.8167 191° South 219 252 3,400  Level Louisville TRACON
06:52PM 37.9935 -86.0297 238° Southwest  Level FlightAware Approximate
06:52PM 38.2131 -85.8878 237° Southwest 266 306 5,000  Level Indianapolis Center
06:53PM 37.9404 -86.1358 238° Southwest  Level FlightAware Approximate
06:53PM 38.1447 -85.9411 212° Southwest 285 328 7,100  Level Indianapolis Center
06:54PM 37.8802 -86.2340 189° South  Level FlightAware Approximate
06:54PM 38.0675 -86.0225 220° Southwest 298 343 10,000  Level Indianapolis Center
06:55PM 37.7786 -86.2554 191° South  Level FlightAware Approximate
06:55PM 38.0078 -86.1056 228° Southwest 317 365 10,900  Level Indianapolis Center
06:56PM 37.6776 -86.2807 191° South  Level FlightAware Approximate
06:56PM 37.9447 -86.2014 230° Southwest 349 402 12,700  Level Indianapolis Center
06:57PM 37.8392 -86.2286 192° South 383 441 14,900 1,740 Climbing Indianapolis Center
06:58PM 37.7275 -86.2281 180° South 393 452 16,300 1,560 Climbing Indianapolis Center
06:59PM 37.6119 -86.2442 186° South 411 473 18,200 1,500 Climbing Indianapolis Center
07:00PM 37.4994 -86.2797 194° South 410 472 19,500 1,200 Climbing Indianapolis Center
07:01PM 37.3833 -86.3178 195° South 425 489 20,800 1,260 Climbing Indianapolis Center
07:02PM 37.2456 -86.3681 196° South 436 502 22,200 960 Climbing Indianapolis Center
07:03PM 37.1239 -86.4125 196° South 447 514 22,900 840 Climbing Indianapolis Center
07:04PM 36.9903 -86.4222 183° South 461 531 23,900 1,080 Climbing Memphis Center
07:05PM 36.8592 -86.4286 182° South 470 541 25,100 1,080 Climbing Memphis Center
07:06PM 36.7386 -86.4369 183° South 477 549 26,100 960 Climbing Memphis Center
07:07PM 36.6069 -86.4278 177° South 471 542 27,100 900 Climbing Memphis Center
07:08PM 36.4772 -86.4111 174° South 484 557 27,900 720 Climbing Memphis Center
07:09PM 36.3414 -86.3969 175° South 484 557 28,600 540 Climbing Memphis Center
07:10PM 36.1928 -86.3836 176° South 484 557 29,000 180 Climbing Memphis Center
07:11PM 36.0569 -86.3722 176° South 484 557 29,000  Level Memphis Center
07:12PM 35.9211 -86.3608 176° South 484 557 29,000  Level Memphis Center
07:14PM 35.6906 -86.3347 175° South 493 567 29,000  Level Atlanta Center
07:15PM 35.5797 -86.2425 146° Southeast 475 547 29,000  Level Atlanta Center
07:16PM 35.4853 -86.1481 141° Southeast 475 547 29,000 -240 Level Atlanta Center
07:17PM 35.3511 -86.0656 153° Southeast 485 558 28,600 -540 Descending Atlanta Center
07:18PM 35.2150 -86.0953 190° South 472 543 28,000 -600 Descending Atlanta Center
07:19PM 35.0958 -86.1000 182° South 477 549 27,400 -660 Descending Atlanta Center
07:20PM 34.9628 -86.0817 174° South 477 549 26,700 -840 Descending Atlanta Center
07:21PM 34.8339 -86.0556 171° South 477 549 25,800 -840 Descending Atlanta Center
07:22PM 34.7264 -85.9822 151° Southeast 457 526 25,100 -720 Descending Atlanta Center
07:23PM 34.6575 -85.8519 123° Southeast 437 503 24,400 -840 Descending Atlanta Center
07:24PM 34.5925 -85.7319 123° Southeast 426 490 23,500 -1,800 Descending Atlanta Center
07:25PM 34.5272 -85.6044 122° Southeast 432 497 20,800 -2,880 Descending Atlanta Center
07:26PM 34.4619 -85.4900 125° Southeast 432 497 17,800 -2,400 Descending Atlanta Center
07:27PM 34.3881 -85.3906 132° Southeast 414 476 16,000 -1,320 Descending Atlanta Center
07:28PM 34.3033 -85.2986 138° Southeast 399 459 15,200 -780 Descending Atlanta Center
07:29PM 34.2081 -85.2194 145° Southeast 404 465 14,500 -660 Descending Atlanta Center
07:30PM 34.1150 -85.1428 146° Southeast 409 471 13,900 -300 Descending Atlanta Center
07:31PM 34.0239 -85.0639 144° Southeast 409 471 13,900  Level Atlanta Center
07:32PM 33.9450 -84.9903 142° Southeast 381 438 14,000 -300 Climbing Atlanta Center
07:33PM 33.8789 -84.9094 135° Southeast 330 380 13,400 -1,080 Descending Atlanta Center
07:33PM 33.8333 -84.8500 133° Southeast 294 338 12,100 -720 Descending Atlanta TRACON
07:34PM 33.7833 -84.7667 126° Southeast 284 327 12,100  Level Atlanta TRACON
07:35PM 33.7500 -84.6833 116° Southeast 288 331 12,100  Level Atlanta TRACON
07:36PM 33.7500 -84.5833 90° East 279 321 12,100 -720 Level Atlanta TRACON
07:37PM 33.7500 -84.5000 90° East 280 322 10,700 -1,560 Descending Atlanta TRACON
07:38PM 33.7500 -84.4000 90° East 269 310 9,000 -1,620 Descending Atlanta TRACON
07:39PM 33.7500 -84.3167 90° East 254 292 7,500 -1,560 Descending Atlanta TRACON
07:40PM 33.7333 -84.2333 104° East 255 293 5,900 -1,140 Descending Atlanta TRACON
07:41PM 33.7333 -84.1500 90° East 253 291 5,300 -420 Descending Atlanta TRACON
07:42PM 33.7333 -84.0833 90° East 236 272 5,100 -120 Descending Atlanta TRACON
07:43PM 33.6833 -84.0500 151° Southeast 232 267 5,100  Level Atlanta TRACON
07:44PM 33.6667 -84.1000 248° West 194 223 5,100 -60 Level Atlanta TRACON
07:46PM 33.6500 -84.1667 253° West 175 201 5,000 -600 Descending Atlanta TRACON
07:47PM 33.6500 -84.2167 270° West 182 209 3,900 -1,140 Descending Atlanta TRACON